Estación Meteorológica Peña el Pijo (Robertgarden) [ 01/30/23 15:34:11 CET ]

Fecha Hora Presion(HPa) Temp (°C) Humedad % Rocio (°C) Viento ( m/s) Direccion Lluvia 1Hora(mm) Lluvia 24H(mm) LLuvia Total(mm)
2010-Aug-15 01:01:19 1011.700 16.7 86 14.3         136.75
2010-Aug-15 02:01:16 1011.900 15.7 89 13.9         136.75
2010-Aug-15 03:01:17 1011.400 14.9 90 13.3         136.75
2010-Aug-15 04:01:14 1011.400 14.3 91 12.9         136.75
2010-Aug-15 05:01:14 1011.700 13.8 91 12.4         136.75
2010-Aug-15 06:01:14 1011.500 13.6 92 12.3         136.75
2010-Aug-15 07:01:13 1011.600 12.9 93 11.8         136.75
2010-Aug-15 08:01:18 1012.000 12.8 93 11.7         136.75
2010-Aug-15 09:01:14 1011.900 17.1 94 16.1         136.75
2010-Aug-15 10:01:17 1011.800 22.1 73 17.0         136.75
2010-Aug-15 11:01:19 1011.800 26.8 53 16.4         136.75
2010-Aug-15 12:01:14 1012.100 30.4 42 16.1         136.75
2010-Aug-15 13:01:17 1011.900 28.5 45 15.4         136.75
2010-Aug-15 14:01:13 1011.600 30.1 43 16.1         136.75
2010-Aug-15 15:01:15 1011.500 31.3 40 16.1         136.75
2010-Aug-15 16:01:11 1011.200 32.1 42 17.5         136.75
2010-Aug-15 17:01:43 1011.000 31.0 42 16.6 0.9 NNE     136.75
2010-Aug-15 18:01:39 1010.900 30.9 40 15.8         136.75
2010-Aug-15 19:01:41 1010.600 29.8 39 14.4         136.75
2010-Aug-15 20:01:41 1010.600 26.5 45 13.6         136.75
2010-Aug-15 21:01:14 1011.400 23.2 53 13.0         136.75
2010-Aug-15 22:01:17 1012.500 20.9 60 12.9         136.75
2010-Aug-15 23:01:19 1013.300 18.3 71 13.0         136.75

Temperatura Máxima:32°    Temperatura Mínima:12°
Presión Máxima:1013.300 Hpa    Presión Mínima:1010.600 Hpa


Volver